createdAt,value
2023-02-14T00:00:48.612Z,80.19
2023-02-14T00:03:27.872Z,80.51
2023-02-14T00:06:00.353Z,80.34
2023-02-14T00:08:29.682Z,79.78
2023-02-14T00:11:02.127Z,79.87
2023-02-14T00:13:31.763Z,80.15
2023-02-14T00:16:05.691Z,80.16
2023-02-14T00:18:54.622Z,80.15
2023-02-14T00:21:27.811Z,79.62
2023-02-14T00:24:00.185Z,79.69
2023-02-14T00:26:29.421Z,79.40
2023-02-14T00:28:58.796Z,79.71
2023-02-14T00:31:31.218Z,79.94
2023-02-14T00:34:06.693Z,80.01
2023-02-14T00:36:35.596Z,80.13
2023-02-14T00:39:08.848Z,79.76
2023-02-14T00:41:40.892Z,80.21
2023-02-14T00:44:15.130Z,80.08
2023-02-14T00:46:46.964Z,80.27
2023-02-14T00:49:18.181Z,79.84
2023-02-14T00:52:37.104Z,79.83
2023-02-14T00:55:08.389Z,79.99
2023-02-14T00:57:39.585Z,80.04
2023-02-14T01:00:12.768Z,80.20
2023-02-14T01:02:42.882Z,80.12
2023-02-14T01:05:12.922Z,80.46
2023-02-14T01:07:42.361Z,79.86
2023-02-14T01:10:14.160Z,80.01
2023-02-14T01:12:44.717Z,79.78
2023-02-14T01:15:17.274Z,80.03
2023-02-14T01:17:47.564Z,80.05
2023-02-14T01:20:19.026Z,80.08
2023-02-14T01:22:48.066Z,79.95
2023-02-14T01:25:19.722Z,80.21
2023-02-14T01:27:48.900Z,79.98
2023-02-14T01:30:22.005Z,80.25
2023-02-14T01:32:50.701Z,80.29
2023-02-14T01:35:20.138Z,80.08
2023-02-14T01:37:51.484Z,80.22
2023-02-14T01:40:25.839Z,80.44
2023-02-14T01:42:55.252Z,80.07
2023-02-14T01:45:27.138Z,80.20
2023-02-14T01:47:57.438Z,80.08
2023-02-14T01:50:31.154Z,79.88
2023-02-14T01:53:04.144Z,80.07
2023-02-14T01:55:35.167Z,79.95
2023-02-14T01:58:11.186Z,80.21
2023-02-14T02:00:57.917Z,80.02
2023-02-14T02:03:35.036Z,80.44
2023-02-14T02:06:26.934Z,80.47
2023-02-14T02:09:05.519Z,80.32
2023-02-14T02:11:36.070Z,80.60
2023-02-14T02:14:06.957Z,80.79
2023-02-14T02:16:54.674Z,80.51
2023-02-14T02:19:34.461Z,80.34
2023-02-14T02:22:26.237Z,80.38
2023-02-14T02:24:57.572Z,80.48
2023-02-14T02:27:27.696Z,80.23
2023-02-14T02:30:26.120Z,79.95
2023-02-14T02:33:16.267Z,80.31
2023-02-14T02:36:09.392Z,80.30
2023-02-14T02:39:11.891Z,79.72
2023-02-14T02:42:01.388Z,80.18
2023-02-14T02:54:01.542Z,80.72
2023-02-14T03:13:07.167Z,80.99
2023-02-14T03:16:08.526Z,80.95
2023-02-14T03:18:59.383Z,80.72
2023-02-14T03:21:52.017Z,80.88
2023-02-14T03:24:39.523Z,80.69
2023-02-14T03:27:21.930Z,80.63
2023-02-14T03:30:17.205Z,80.59
2023-02-14T03:32:51.093Z,80.65
2023-02-14T03:35:34.188Z,80.61
2023-02-14T03:38:15.971Z,80.77
2023-02-14T03:40:55.133Z,80.78
2023-02-14T03:43:37.216Z,80.36
2023-02-14T03:46:10.770Z,80.89
2023-02-14T03:48:42.564Z,81.20
2023-02-14T03:51:14.044Z,80.71
2023-02-14T03:57:58.997Z,80.74
2023-02-14T04:00:29.686Z,81.00
2023-02-14T04:03:05.136Z,80.75
2023-02-14T04:05:38.334Z,80.54
2023-02-14T04:08:11.094Z,80.73
2023-02-14T04:10:42.661Z,80.76
2023-02-14T04:13:13.293Z,80.72
2023-02-14T04:15:44.795Z,80.97
2023-02-14T04:18:34.197Z,80.49
2023-02-14T04:21:06.480Z,80.59
2023-02-14T04:23:37.322Z,81.26
2023-02-14T04:26:10.335Z,81.09
2023-02-14T04:28:40.309Z,80.99
2023-02-14T04:31:11.846Z,80.29
2023-02-14T04:33:40.900Z,80.73
2023-02-14T04:36:10.752Z,80.80
2023-02-14T04:38:41.580Z,80.95
2023-02-14T04:41:12.833Z,80.97
2023-02-14T04:43:42.242Z,80.96
2023-02-14T04:46:11.775Z,81.07
2023-02-14T04:48:43.919Z,81.09
2023-02-14T04:51:13.023Z,80.93
2023-02-14T04:53:45.818Z,80.76
2023-02-14T04:56:18.157Z,81.46
2023-02-14T04:58:47.771Z,81.36
2023-02-14T05:01:18.818Z,81.02
2023-02-14T05:03:51.475Z,80.82
2023-02-14T05:06:23.150Z,80.82
2023-02-14T05:08:53.046Z,81.12
2023-02-14T05:11:23.318Z,81.59
2023-02-14T05:13:54.837Z,81.13
2023-02-14T05:16:27.165Z,81.01
2023-02-14T05:18:57.739Z,81.24
2023-02-14T05:21:28.426Z,81.23
2023-02-14T05:23:59.527Z,81.02
2023-02-14T05:26:29.062Z,81.15
2023-02-14T05:29:00.510Z,81.56
2023-02-14T05:31:31.249Z,81.51
2023-02-14T05:34:01.145Z,81.55
2023-02-14T05:36:31.788Z,81.42
2023-02-14T05:39:02.664Z,81.19
2023-02-14T05:41:33.898Z,81.47
2023-02-14T05:44:04.427Z,81.40
2023-02-14T05:46:35.815Z,81.03
2023-02-14T05:49:04.696Z,81.13
2023-02-14T05:51:38.249Z,81.34
2023-02-14T05:54:10.870Z,81.56
2023-02-14T05:56:43.091Z,81.58
2023-02-14T05:59:14.661Z,81.25
2023-02-14T06:01:45.515Z,81.36
2023-02-14T06:04:14.588Z,81.05
2023-02-14T06:06:44.108Z,81.41
2023-02-14T06:09:16.016Z,81.51
2023-02-14T06:11:45.699Z,81.71
2023-02-14T06:14:14.968Z,81.45
2023-02-14T06:16:46.498Z,81.44
2023-02-14T06:19:16.969Z,81.35
2023-02-14T06:21:47.529Z,81.89
2023-02-14T06:24:16.927Z,81.47
2023-02-14T06:26:46.469Z,81.29
2023-02-14T06:29:18.564Z,81.48
2023-02-14T06:31:47.791Z,81.55
2023-02-14T06:34:18.231Z,81.87
2023-02-14T06:36:56.591Z,81.59
2023-02-14T06:39:29.197Z,81.57
2023-02-14T06:41:59.873Z,81.57
2023-02-14T06:44:29.662Z,81.11
2023-02-14T06:46:59.153Z,81.36
2023-02-14T06:49:29.762Z,81.29
2023-02-14T06:52:02.087Z,81.84
2023-02-14T06:54:32.332Z,81.81
2023-02-14T06:57:01.499Z,81.64
2023-02-14T06:59:30.183Z,81.72
2023-02-14T07:02:01.597Z,81.62
2023-02-14T07:04:31.404Z,81.12
2023-02-14T07:07:05.641Z,81.61
2023-02-14T07:09:34.697Z,81.76
2023-02-14T07:12:07.248Z,81.88
2023-02-14T07:14:39.441Z,81.70
2023-02-14T07:17:44.280Z,81.53
2023-02-14T07:20:08.610Z,81.34
2023-02-14T07:22:39.981Z,81.49
2023-02-14T07:25:12.584Z,81.52
2023-02-14T07:27:44.221Z,81.99
2023-02-14T07:30:14.330Z,82.00
2023-02-14T07:32:45.154Z,81.69
2023-02-14T07:35:15.297Z,81.66
2023-02-14T07:37:44.257Z,81.28
2023-02-14T07:40:15.510Z,81.82
2023-02-14T07:42:45.852Z,81.84
2023-02-14T07:45:22.037Z,81.76
2023-02-14T07:47:54.806Z,81.48
2023-02-14T07:50:26.525Z,81.09
2023-02-14T07:52:57.270Z,81.43
2023-02-14T07:55:28.650Z,81.66
2023-02-14T07:57:59.499Z,81.85
2023-02-14T08:00:29.716Z,81.76
2023-02-14T08:02:59.970Z,81.40
2023-02-14T08:05:31.086Z,82.01
2023-02-14T08:07:59.951Z,81.45
2023-02-14T08:10:28.912Z,81.63
2023-02-14T08:12:59.319Z,81.92
2023-02-14T08:15:51.607Z,81.75
2023-02-14T08:18:23.377Z,81.88
2023-02-14T08:20:52.392Z,81.57
2023-02-14T08:23:23.051Z,81.94
2023-02-14T08:25:53.219Z,82.15
2023-02-14T08:28:24.270Z,81.92
2023-02-14T08:30:55.435Z,81.72
2023-02-14T08:33:26.945Z,82.32
2023-02-14T08:35:56.956Z,82.02
2023-02-14T08:38:25.888Z,81.86
2023-02-14T08:41:03.794Z,82.11
2023-02-14T08:43:36.534Z,81.96
2023-02-14T08:46:08.595Z,82.05
2023-02-14T08:48:39.422Z,81.86
2023-02-14T08:51:09.322Z,82.43
2023-02-14T08:53:40.254Z,82.26
2023-02-14T08:56:11.034Z,81.83
2023-02-14T08:58:40.992Z,81.80
2023-02-14T09:01:11.105Z,81.82
2023-02-14T09:03:40.432Z,81.36
2023-02-14T09:06:11.375Z,81.43
2023-02-14T09:08:41.778Z,81.68
2023-02-14T09:11:12.179Z,81.48
2023-02-14T09:13:41.910Z,81.60
2023-02-14T09:16:12.578Z,82.06
2023-02-14T09:18:41.726Z,81.67
2023-02-14T09:21:14.031Z,81.90
2023-02-14T09:23:42.973Z,81.95
2023-02-14T09:26:12.741Z,81.63
2023-02-14T09:28:41.756Z,81.53
2023-02-14T09:31:13.001Z,81.67
2023-02-14T09:34:00.909Z,81.87
2023-02-14T09:36:48.997Z,81.72
2023-02-14T09:39:19.372Z,81.72
2023-02-14T09:42:10.426Z,81.45
2023-02-14T09:44:47.253Z,81.37
2023-02-14T09:47:33.033Z,81.16
2023-02-14T09:50:07.449Z,81.21
2023-02-14T09:52:38.690Z,81.32
2023-02-14T09:55:13.725Z,81.39
2023-02-14T09:57:51.203Z,80.32
2023-02-14T10:00:28.271Z,80.69
2023-02-14T10:03:12.958Z,80.90
2023-02-14T10:05:55.551Z,80.99
2023-02-14T10:08:35.842Z,80.68
2023-02-14T10:11:08.634Z,80.63
2023-02-14T10:13:47.433Z,80.47
2023-02-14T10:16:20.906Z,80.62
2023-02-14T10:18:55.506Z,80.32
2023-02-14T10:21:33.800Z,79.99
2023-02-14T10:24:12.092Z,79.80
2023-02-14T10:26:46.009Z,80.43
2023-02-14T10:29:20.833Z,80.68
2023-02-14T10:31:57.750Z,80.34
2023-02-14T10:34:58.412Z,80.56
2023-02-14T10:37:30.780Z,80.64
2023-02-14T10:40:03.471Z,80.74
2023-02-14T10:42:44.236Z,80.49
2023-02-14T10:45:25.926Z,79.72
2023-02-14T10:47:56.022Z,80.76
2023-02-14T10:50:28.500Z,80.27
2023-02-14T10:53:05.118Z,80.42
2023-02-14T10:55:48.699Z,80.32
2023-02-14T10:58:20.172Z,80.37
2023-02-14T11:00:54.928Z,79.54
2023-02-14T11:03:27.105Z,79.37
2023-02-14T11:05:56.993Z,78.86
2023-02-14T11:08:29.606Z,80.11
2023-02-14T11:11:08.127Z,80.10
2023-02-14T11:13:40.064Z,80.03
2023-02-14T11:16:10.998Z,80.51
2023-02-14T11:18:41.767Z,80.38
2023-02-14T11:21:13.566Z,80.39
2023-02-14T11:23:48.133Z,80.03
2023-02-14T11:26:22.841Z,80.44
2023-02-14T11:29:01.454Z,79.91
2023-02-14T11:31:34.375Z,80.17
2023-02-14T11:34:05.238Z,79.04
2023-02-14T11:36:40.750Z,78.86
2023-02-14T11:39:40.709Z,78.74
2023-02-14T11:42:14.147Z,78.72
2023-02-14T11:44:56.593Z,78.02
2023-02-14T11:47:29.127Z,77.22
2023-02-14T11:50:01.493Z,76.98
2023-02-14T11:52:59.524Z,75.32
2023-02-14T11:55:34.041Z,75.06
2023-02-14T11:58:05.902Z,74.25
2023-02-14T12:00:35.591Z,74.17
2023-02-14T12:03:07.651Z,75.42
2023-02-14T12:05:49.321Z,76.44
2023-02-14T12:08:25.355Z,77.20
2023-02-14T12:11:18.500Z,77.12
2023-02-14T12:13:54.277Z,74.95
2023-02-14T12:16:28.285Z,73.51
2023-02-14T12:18:59.755Z,73.38
2023-02-14T12:21:51.948Z,72.70
2023-02-14T12:24:43.363Z,74.57
2023-02-14T12:27:12.977Z,75.26
2023-02-14T12:29:46.066Z,74.75
2023-02-14T12:32:30.489Z,75.48
2023-02-14T12:35:18.214Z,74.05
2023-02-14T12:37:50.809Z,73.98
2023-02-14T12:40:36.921Z,74.22
2023-02-14T12:43:25.750Z,74.32
2023-02-14T12:45:57.263Z,74.42
2023-02-14T12:48:30.918Z,75.24
2023-02-14T12:51:00.158Z,74.96
2023-02-14T12:53:43.040Z,74.85
2023-02-14T12:56:25.868Z,74.34
2023-02-14T12:59:10.828Z,72.51
2023-02-14T13:01:43.487Z,70.83
2023-02-14T13:04:15.024Z,71.82
2023-02-14T13:07:08.452Z,72.72
2023-02-14T13:09:50.563Z,73.83
2023-02-14T13:12:37.268Z,73.95
2023-02-14T13:15:10.879Z,73.13
2023-02-14T13:17:59.059Z,73.56
2023-02-14T13:20:52.593Z,73.18
2023-02-14T13:23:38.406Z,71.98
2023-02-14T13:26:32.520Z,73.07
2023-02-14T13:29:06.930Z,74.04
2023-02-14T13:31:38.081Z,72.15
2023-02-14T13:34:07.429Z,71.81
2023-02-14T13:36:38.358Z,73.98
2023-02-14T13:39:08.669Z,73.61
2023-02-14T13:41:42.166Z,73.63
2023-02-14T13:44:12.815Z,74.31
2023-02-14T13:46:44.693Z,73.25
2023-02-14T13:49:26.096Z,73.35
2023-02-14T13:52:21.880Z,74.30
2023-02-14T13:54:51.600Z,74.69
2023-02-14T13:57:37.285Z,74.48
2023-02-14T14:00:20.228Z,74.07
2023-02-14T14:02:57.859Z,73.64
2023-02-14T14:05:31.448Z,73.54
2023-02-14T14:08:20.723Z,73.85
2023-02-14T14:10:56.161Z,74.18
2023-02-14T14:13:46.724Z,73.31
2023-02-14T14:16:28.241Z,72.64
2023-02-14T14:19:03.017Z,72.95
2023-02-14T14:21:33.544Z,73.18
2023-02-14T14:24:04.490Z,73.47
2023-02-14T14:26:42.855Z,72.90
2023-02-14T14:29:28.309Z,72.78
2023-02-14T14:31:58.173Z,72.19
2023-02-14T14:34:30.617Z,72.74
2023-02-14T14:37:05.185Z,72.81
2023-02-14T14:39:36.774Z,72.93
2023-02-14T14:42:10.563Z,72.68
2023-02-14T14:44:45.914Z,72.28
2023-02-14T14:47:20.680Z,72.60
2023-02-14T14:49:50.304Z,72.09
2023-02-14T14:52:31.012Z,72.16
2023-02-14T14:55:01.417Z,72.17
2023-02-14T14:57:30.960Z,72.24
2023-02-14T15:00:18.565Z,72.05
2023-02-14T15:03:08.558Z,72.04
2023-02-14T15:05:45.848Z,72.24
2023-02-14T15:08:22.801Z,71.65
2023-02-14T15:10:52.900Z,71.53
2023-02-14T15:13:58.195Z,71.35
2023-02-14T15:16:37.467Z,71.77
2023-02-14T15:19:17.065Z,71.84
2023-02-14T15:22:13.364Z,71.80
2023-02-14T15:24:59.017Z,71.79
2023-02-14T15:27:40.032Z,71.79
2023-02-14T15:30:19.833Z,71.52
2023-02-14T15:32:55.518Z,71.13
2023-02-14T15:35:35.372Z,71.25
2023-02-14T15:38:16.629Z,71.25
2023-02-14T15:41:08.324Z,71.47
2023-02-14T15:44:05.288Z,71.76
2023-02-14T15:46:49.569Z,71.96
2023-02-14T15:49:51.151Z,71.32
2023-02-14T15:52:50.752Z,71.79
2023-02-14T15:55:23.844Z,71.83
2023-02-14T15:58:03.660Z,71.98
2023-02-14T16:00:33.408Z,72.19
2023-02-14T16:03:11.674Z,72.21
2023-02-14T16:05:48.162Z,72.43
2023-02-14T16:08:33.392Z,72.75
2023-02-14T16:11:08.188Z,72.85
2023-02-14T16:13:43.917Z,72.87
2023-02-14T16:16:16.803Z,72.61
2023-02-14T16:18:58.981Z,72.70
2023-02-14T16:21:31.761Z,73.17
2023-02-14T16:24:07.108Z,73.05
2023-02-14T16:26:43.821Z,73.07
2023-02-14T16:29:16.650Z,72.75
2023-02-14T16:32:15.582Z,73.08
2023-02-14T16:34:41.872Z,73.13
2023-02-14T16:37:26.091Z,73.16
2023-02-14T16:40:01.594Z,73.18
2023-02-14T16:42:33.668Z,72.97
2023-02-14T16:45:07.280Z,72.89
2023-02-14T16:50:23.197Z,72.52
2023-02-14T16:52:53.919Z,72.85
2023-02-14T16:55:28.110Z,72.98
2023-02-14T16:57:59.925Z,72.99
2023-02-14T17:00:30.920Z,72.89
2023-02-14T17:03:07.753Z,72.90
2023-02-14T17:05:40.826Z,73.14
2023-02-14T17:08:16.395Z,72.95
2023-02-14T17:13:59.611Z,73.08
2023-02-14T17:16:33.793Z,73.07
2023-02-14T17:19:05.838Z,73.15
2023-02-14T17:21:39.780Z,73.29
2023-02-14T17:24:10.601Z,73.37
2023-02-14T17:26:48.970Z,73.25
2023-02-14T17:29:20.874Z,73.31
2023-02-14T17:31:56.353Z,73.18
2023-02-14T17:34:30.280Z,73.44
2023-02-14T17:37:03.955Z,73.45
2023-02-14T17:39:41.050Z,73.50
2023-02-14T17:42:12.836Z,73.39
2023-02-14T17:44:47.676Z,73.54
2023-02-14T17:47:25.146Z,73.59
2023-02-14T17:50:02.263Z,73.45
2023-02-14T17:53:02.589Z,73.65
2023-02-14T17:55:35.496Z,73.76
2023-02-14T17:58:16.142Z,74.07
2023-02-14T18:00:47.756Z,73.78
2023-02-14T18:03:20.010Z,73.68
2023-02-14T18:05:54.002Z,73.49
2023-02-14T18:08:25.004Z,73.93
2023-02-14T18:10:59.051Z,73.60
2023-02-14T18:13:37.232Z,73.19
2023-02-14T18:16:10.555Z,73.31
2023-02-14T18:18:42.340Z,73.28
2023-02-14T18:21:24.752Z,72.96
2023-02-14T18:24:03.184Z,73.00
2023-02-14T18:26:38.958Z,73.22
2023-02-14T18:29:13.381Z,73.20
2023-02-14T18:31:45.952Z,73.40
2023-02-14T18:34:40.447Z,72.58
2023-02-14T18:37:16.169Z,72.62
2023-02-14T18:39:48.470Z,72.61
2023-02-14T18:42:20.145Z,73.05
2023-02-14T18:44:54.532Z,73.23
2023-02-14T18:47:25.897Z,73.15
2023-02-14T18:49:58.794Z,73.26
2023-02-14T18:52:29.183Z,73.68
2023-02-14T18:55:00.777Z,73.69
2023-02-14T18:57:34.531Z,73.67
2023-02-14T19:00:08.741Z,73.58
2023-02-14T19:02:42.795Z,73.64
2023-02-14T19:05:13.692Z,73.70
2023-02-14T19:07:46.774Z,73.84
2023-02-14T19:10:21.166Z,73.61
2023-02-14T19:12:55.426Z,73.62
2023-02-14T19:15:33.082Z,73.68
2023-02-14T19:18:05.339Z,73.66
2023-02-14T19:20:41.917Z,73.97
2023-02-14T19:23:13.920Z,73.97
2023-02-14T19:25:48.299Z,73.78
2023-02-14T19:28:20.690Z,73.71
2023-02-14T19:30:56.341Z,73.78
2023-02-14T19:33:27.232Z,73.70
2023-02-14T19:36:03.836Z,73.70
2023-02-14T19:38:37.346Z,73.93
2023-02-14T19:41:17.789Z,74.05
2023-02-14T19:43:52.820Z,74.02
2023-02-14T19:46:27.471Z,73.81
2023-02-14T19:49:05.431Z,73.68
2023-02-14T19:51:41.057Z,73.60
2023-02-14T19:57:59.070Z,73.66
2023-02-14T20:00:32.885Z,73.37
2023-02-14T20:03:07.270Z,73.61
2023-02-14T20:05:52.400Z,73.84
2023-02-14T20:08:30.114Z,73.97
2023-02-14T20:11:03.247Z,73.91
2023-02-14T20:13:37.197Z,74.25
2023-02-14T20:17:07.964Z,74.45
2023-02-14T20:19:47.250Z,74.06
2023-02-14T20:22:24.237Z,74.39
2023-02-14T20:25:00.285Z,74.43
2023-02-14T20:27:39.014Z,74.35
2023-02-14T20:30:16.597Z,74.04
2023-02-14T20:32:49.580Z,74.42
2023-02-14T20:35:24.163Z,74.49
2023-02-14T20:38:03.240Z,74.33
2023-02-14T20:40:44.630Z,74.56
2023-02-14T20:43:20.111Z,74.35
2023-02-14T20:45:54.577Z,74.57
2023-02-14T20:48:32.862Z,74.62
2023-02-14T20:51:13.809Z,74.60
2023-02-14T20:53:45.654Z,74.52
2023-02-14T20:56:25.859Z,74.79
2023-02-14T20:58:59.755Z,74.60
2023-02-14T21:01:35.256Z,74.68
2023-02-14T21:04:11.485Z,74.56
2023-02-14T21:06:44.022Z,74.91
2023-02-14T21:09:21.638Z,75.04
2023-02-14T21:11:55.310Z,75.06
2023-02-14T21:14:30.903Z,75.01
2023-02-14T21:17:07.114Z,74.56
2023-02-14T21:19:48.476Z,74.46
2023-02-14T21:22:25.310Z,74.27
2023-02-14T21:25:00.950Z,74.31
2023-02-14T21:27:34.677Z,74.29
2023-02-14T21:30:09.468Z,74.53
2023-02-14T21:32:42.301Z,74.98
2023-02-14T21:35:12.944Z,75.07
2023-02-14T21:37:48.516Z,75.16
2023-02-14T21:40:24.799Z,75.16
2023-02-14T21:43:02.584Z,74.73
2023-02-14T21:45:55.242Z,74.85
2023-02-14T21:48:46.621Z,74.71
2023-02-14T21:51:21.670Z,74.86
2023-02-14T21:54:06.593Z,75.20
2023-02-14T21:56:46.669Z,75.07
2023-02-14T21:59:20.478Z,75.21
2023-02-14T22:01:51.440Z,75.24
2023-02-14T22:04:30.823Z,75.14
2023-02-14T22:07:05.869Z,74.94
2023-02-14T22:09:37.096Z,75.14
2023-02-14T22:12:12.181Z,74.95
2023-02-14T22:14:45.791Z,74.90
2023-02-14T22:17:16.952Z,74.93
2023-02-14T22:19:47.964Z,74.75
2023-02-14T22:22:18.149Z,74.82
2023-02-14T22:24:51.306Z,74.90
2023-02-14T22:27:22.048Z,74.96
2023-02-14T22:29:51.522Z,75.06
2023-02-14T22:32:25.606Z,74.98
2023-02-14T22:34:58.573Z,75.49
2023-02-14T22:37:30.476Z,75.35
2023-02-14T22:40:02.438Z,75.21
2023-02-14T22:42:34.637Z,75.30
2023-02-14T22:45:04.200Z,75.35
2023-02-14T22:47:35.602Z,75.29
2023-02-14T22:50:07.509Z,75.60
2023-02-14T22:53:03.922Z,75.65
2023-02-14T22:55:35.233Z,75.59
2023-02-14T22:58:11.674Z,75.80
2023-02-14T23:00:45.941Z,75.78
2023-02-14T23:03:17.846Z,75.92
2023-02-14T23:05:49.573Z,76.03
2023-02-14T23:08:21.576Z,76.02
2023-02-14T23:10:55.289Z,75.94
2023-02-14T23:13:56.279Z,76.15
2023-02-14T23:16:46.250Z,75.91
2023-02-14T23:19:36.967Z,76.03
2023-02-14T23:22:12.809Z,76.16
2023-02-14T23:24:43.878Z,75.91
2023-02-14T23:27:14.395Z,76.04
2023-02-14T23:29:46.108Z,75.96
2023-02-14T23:32:18.784Z,76.11
2023-02-14T23:34:49.547Z,75.85
2023-02-14T23:37:19.226Z,75.96
2023-02-14T23:39:50.657Z,76.24
2023-02-14T23:42:20.798Z,76.31
2023-02-14T23:44:54.888Z,76.73
2023-02-14T23:47:26.788Z,76.69
2023-02-14T23:49:57.046Z,76.76
2023-02-14T23:52:30.554Z,76.77
2023-02-14T23:55:07.493Z,76.48
2023-02-14T23:57:40.720Z,76.60
